sensor_id;sensor_type;location;lat;lon;timestamp;P1;durP1;ratioP1;P2;durP2;ratioP2
5117;SDS011;2578;51.622;7.046;2024-02-28T00:00:04;77.27;;;12.00;;
5117;SDS011;2578;51.622;7.046;2024-02-28T00:02:30;77.37;;;12.17;;
5117;SDS011;2578;51.622;7.046;2024-02-28T00:04:56;77.13;;;12.13;;
5117;SDS011;2578;51.622;7.046;2024-02-28T00:07:25;78.27;;;13.07;;
5117;SDS011;2578;51.622;7.046;2024-02-28T00:09:51;76.73;;;12.10;;
5117;SDS011;2578;51.622;7.046;2024-02-28T00:12:22;76.60;;;11.80;;
5117;SDS011;2578;51.622;7.046;2024-02-28T00:14:50;76.97;;;11.67;;
5117;SDS011;2578;51.622;7.046;2024-02-28T00:17:16;77.27;;;11.60;;
5117;SDS011;2578;51.622;7.046;2024-02-28T00:19:42;76.60;;;11.73;;
5117;SDS011;2578;51.622;7.046;2024-02-28T00:22:08;76.50;;;11.13;;
5117;SDS011;2578;51.622;7.046;2024-02-28T00:24:34;76.70;;;11.20;;
5117;SDS011;2578;51.622;7.046;2024-02-28T00:27:00;76.67;;;10.60;;
5117;SDS011;2578;51.622;7.046;2024-02-28T00:29:26;76.87;;;10.97;;
5117;SDS011;2578;51.622;7.046;2024-02-28T00:31:52;86.60;;;12.40;;
5117;SDS011;2578;51.622;7.046;2024-02-28T00:34:19;78.30;;;13.57;;
5117;SDS011;2578;51.622;7.046;2024-02-28T00:36:45;77.20;;;11.20;;
5117;SDS011;2578;51.622;7.046;2024-02-28T00:39:11;79.87;;;12.93;;
5117;SDS011;2578;51.622;7.046;2024-02-28T00:41:37;77.27;;;11.00;;
5117;SDS011;2578;51.622;7.046;2024-02-28T00:44:03;77.53;;;11.30;;
5117;SDS011;2578;51.622;7.046;2024-02-28T00:46:29;76.93;;;10.90;;
5117;SDS011;2578;51.622;7.046;2024-02-28T00:48:55;77.57;;;10.93;;
5117;SDS011;2578;51.622;7.046;2024-02-28T00:51:21;76.77;;;10.90;;
5117;SDS011;2578;51.622;7.046;2024-02-28T00:53:47;77.30;;;11.50;;
5117;SDS011;2578;51.622;7.046;2024-02-28T00:56:13;77.70;;;11.00;;
5117;SDS011;2578;51.622;7.046;2024-02-28T00:58:39;77.73;;;11.57;;
5117;SDS011;2578;51.622;7.046;2024-02-28T01:01:05;77.50;;;11.07;;
5117;SDS011;2578;51.622;7.046;2024-02-28T01:03:32;77.47;;;10.87;;
5117;SDS011;2578;51.622;7.046;2024-02-28T01:05:58;76.57;;;11.00;;
5117;SDS011;2578;51.622;7.046;2024-02-28T01:08:26;76.83;;;11.00;;
5117;SDS011;2578;51.622;7.046;2024-02-28T01:10:52;77.20;;;11.10;;
5117;SDS011;2578;51.622;7.046;2024-02-28T01:13:18;77.07;;;10.60;;
5117;SDS011;2578;51.622;7.046;2024-02-28T01:15:44;76.70;;;10.20;;
5117;SDS011;2578;51.622;7.046;2024-02-28T01:18:10;78.03;;;11.70;;
5117;SDS011;2578;51.622;7.046;2024-02-28T01:20:36;77.00;;;9.63;;
5117;SDS011;2578;51.622;7.046;2024-02-28T01:23:02;78.40;;;11.87;;
5117;SDS011;2578;51.622;7.046;2024-02-28T01:25:28;79.77;;;10.40;;
5117;SDS011;2578;51.622;7.046;2024-02-28T01:27:55;76.17;;;8.97;;
5117;SDS011;2578;51.622;7.046;2024-02-28T01:30:24;76.13;;;9.33;;
5117;SDS011;2578;51.622;7.046;2024-02-28T01:32:50;76.27;;;9.00;;
5117;SDS011;2578;51.622;7.046;2024-02-28T01:35:16;75.57;;;9.30;;
5117;SDS011;2578;51.622;7.046;2024-02-28T01:37:42;76.10;;;9.20;;
5117;SDS011;2578;51.622;7.046;2024-02-28T01:40:08;77.37;;;10.67;;
5117;SDS011;2578;51.622;7.046;2024-02-28T01:42:35;76.80;;;9.70;;
5117;SDS011;2578;51.622;7.046;2024-02-28T01:45:02;80.60;;;10.37;;
5117;SDS011;2578;51.622;7.046;2024-02-28T01:47:28;75.97;;;8.73;;
5117;SDS011;2578;51.622;7.046;2024-02-28T01:49:54;76.90;;;9.77;;
5117;SDS011;2578;51.622;7.046;2024-02-28T01:52:20;76.13;;;8.80;;
5117;SDS011;2578;51.622;7.046;2024-02-28T01:54:46;76.33;;;9.27;;
5117;SDS011;2578;51.622;7.046;2024-02-28T01:57:12;77.17;;;8.43;;
5117;SDS011;2578;51.622;7.046;2024-02-28T01:59:39;76.00;;;8.67;;
5117;SDS011;2578;51.622;7.046;2024-02-28T02:02:05;75.47;;;7.90;;
5117;SDS011;2578;51.622;7.046;2024-02-28T02:04:32;77.37;;;8.73;;
5117;SDS011;2578;51.622;7.046;2024-02-28T02:06:58;79.70;;;11.60;;
5117;SDS011;2578;51.622;7.046;2024-02-28T02:09:25;76.40;;;8.13;;
5117;SDS011;2578;51.622;7.046;2024-02-28T02:11:51;77.73;;;10.70;;
5117;SDS011;2578;51.622;7.046;2024-02-28T02:14:17;76.40;;;9.30;;
5117;SDS011;2578;51.622;7.046;2024-02-28T02:16:43;77.17;;;9.13;;
5117;SDS011;2578;51.622;7.046;2024-02-28T02:19:09;77.33;;;9.30;;
5117;SDS011;2578;51.622;7.046;2024-02-28T02:21:43;76.20;;;8.80;;
5117;SDS011;2578;51.622;7.046;2024-02-28T02:24:15;79.43;;;12.63;;
5117;SDS011;2578;51.622;7.046;2024-02-28T02:26:41;77.80;;;9.87;;
5117;SDS011;2578;51.622;7.046;2024-02-28T02:29:09;76.90;;;8.70;;
5117;SDS011;2578;51.622;7.046;2024-02-28T02:31:35;76.97;;;9.10;;
5117;SDS011;2578;51.622;7.046;2024-02-28T02:34:01;76.13;;;8.83;;
5117;SDS011;2578;51.622;7.046;2024-02-28T02:36:27;82.27;;;12.67;;
5117;SDS011;2578;51.622;7.046;2024-02-28T02:38:53;79.20;;;11.03;;
5117;SDS011;2578;51.622;7.046;2024-02-28T02:41:19;77.40;;;10.13;;
5117;SDS011;2578;51.622;7.046;2024-02-28T02:43:45;79.40;;;10.70;;
5117;SDS011;2578;51.622;7.046;2024-02-28T02:46:11;76.97;;;10.27;;
5117;SDS011;2578;51.622;7.046;2024-02-28T02:48:37;76.90;;;9.93;;
5117;SDS011;2578;51.622;7.046;2024-02-28T02:51:03;76.47;;;9.53;;
5117;SDS011;2578;51.622;7.046;2024-02-28T02:53:29;76.17;;;9.23;;
5117;SDS011;2578;51.622;7.046;2024-02-28T02:55:55;76.87;;;9.40;;
5117;SDS011;2578;51.622;7.046;2024-02-28T02:58:21;80.07;;;11.13;;
5117;SDS011;2578;51.622;7.046;2024-02-28T03:00:47;76.70;;;8.83;;
5117;SDS011;2578;51.622;7.046;2024-02-28T03:03:13;79.97;;;12.20;;
5117;SDS011;2578;51.622;7.046;2024-02-28T03:05:39;77.00;;;8.30;;
5117;SDS011;2578;51.622;7.046;2024-02-28T03:08:05;77.10;;;8.70;;
5117;SDS011;2578;51.622;7.046;2024-02-28T03:10:31;76.83;;;8.20;;
5117;SDS011;2578;51.622;7.046;2024-02-28T03:12:57;76.73;;;8.57;;
5117;SDS011;2578;51.622;7.046;2024-02-28T03:15:23;77.50;;;9.73;;
5117;SDS011;2578;51.622;7.046;2024-02-28T03:17:49;84.30;;;10.63;;
5117;SDS011;2578;51.622;7.046;2024-02-28T03:20:15;77.23;;;9.30;;
5117;SDS011;2578;51.622;7.046;2024-02-28T03:22:41;83.67;;;11.10;;
5117;SDS011;2578;51.622;7.046;2024-02-28T03:25:07;77.20;;;10.83;;
5117;SDS011;2578;51.622;7.046;2024-02-28T03:27:33;77.47;;;9.90;;
5117;SDS011;2578;51.622;7.046;2024-02-28T03:29:59;77.10;;;9.00;;
5117;SDS011;2578;51.622;7.046;2024-02-28T03:32:26;76.80;;;8.80;;
5117;SDS011;2578;51.622;7.046;2024-02-28T03:34:52;77.03;;;8.70;;
5117;SDS011;2578;51.622;7.046;2024-02-28T03:37:18;76.43;;;8.70;;
5117;SDS011;2578;51.622;7.046;2024-02-28T03:39:44;76.80;;;8.70;;
5117;SDS011;2578;51.622;7.046;2024-02-28T03:42:10;76.73;;;8.90;;
5117;SDS011;2578;51.622;7.046;2024-02-28T03:44:36;77.20;;;8.70;;
5117;SDS011;2578;51.622;7.046;2024-02-28T03:47:02;77.70;;;9.57;;
5117;SDS011;2578;51.622;7.046;2024-02-28T03:49:28;77.77;;;9.80;;
5117;SDS011;2578;51.622;7.046;2024-02-28T03:51:54;77.67;;;9.70;;
5117;SDS011;2578;51.622;7.046;2024-02-28T03:54:20;77.47;;;9.67;;
5117;SDS011;2578;51.622;7.046;2024-02-28T03:56:46;77.07;;;10.00;;
5117;SDS011;2578;51.622;7.046;2024-02-28T03:59:12;77.27;;;9.17;;
5117;SDS011;2578;51.622;7.046;2024-02-28T04:01:38;76.40;;;9.00;;
5117;SDS011;2578;51.622;7.046;2024-02-28T04:04:04;77.57;;;9.40;;
5117;SDS011;2578;51.622;7.046;2024-02-28T04:06:30;76.93;;;8.30;;
5117;SDS011;2578;51.622;7.046;2024-02-28T04:08:56;77.37;;;8.70;;
5117;SDS011;2578;51.622;7.046;2024-02-28T04:11:22;77.10;;;8.80;;
5117;SDS011;2578;51.622;7.046;2024-02-28T04:13:48;77.43;;;8.63;;
5117;SDS011;2578;51.622;7.046;2024-02-28T04:16:14;83.30;;;11.23;;
5117;SDS011;2578;51.622;7.046;2024-02-28T04:18:40;77.40;;;8.43;;
5117;SDS011;2578;51.622;7.046;2024-02-28T04:21:06;77.93;;;8.83;;
5117;SDS011;2578;51.622;7.046;2024-02-28T04:23:32;77.07;;;8.30;;
5117;SDS011;2578;51.622;7.046;2024-02-28T04:25:57;77.37;;;7.70;;
5117;SDS011;2578;51.622;7.046;2024-02-28T04:28:23;78.57;;;9.53;;
5117;SDS011;2578;51.622;7.046;2024-02-28T04:30:49;78.17;;;7.90;;
5117;SDS011;2578;51.622;7.046;2024-02-28T04:33:16;85.53;;;10.40;;
5117;SDS011;2578;51.622;7.046;2024-02-28T04:35:42;77.97;;;8.60;;
5117;SDS011;2578;51.622;7.046;2024-02-28T04:38:08;85.70;;;8.73;;
5117;SDS011;2578;51.622;7.046;2024-02-28T04:40:34;84.10;;;11.10;;
5117;SDS011;2578;51.622;7.046;2024-02-28T04:43:01;84.93;;;14.43;;
5117;SDS011;2578;51.622;7.046;2024-02-28T04:45:27;79.40;;;9.97;;
5117;SDS011;2578;51.622;7.046;2024-02-28T04:47:53;78.17;;;8.10;;
5117;SDS011;2578;51.622;7.046;2024-02-28T04:50:21;78.47;;;9.13;;
5117;SDS011;2578;51.622;7.046;2024-02-28T04:52:48;78.77;;;9.07;;
5117;SDS011;2578;51.622;7.046;2024-02-28T04:55:14;79.37;;;9.90;;
5117;SDS011;2578;51.622;7.046;2024-02-28T04:57:40;78.57;;;8.47;;
5117;SDS011;2578;51.622;7.046;2024-02-28T05:00:06;78.40;;;8.27;;
5117;SDS011;2578;51.622;7.046;2024-02-28T05:02:33;78.30;;;8.00;;
5117;SDS011;2578;51.622;7.046;2024-02-28T05:04:59;81.07;;;10.13;;
5117;SDS011;2578;51.622;7.046;2024-02-28T05:07:25;81.47;;;11.00;;
5117;SDS011;2578;51.622;7.046;2024-02-28T05:09:51;80.77;;;10.90;;
5117;SDS011;2578;51.622;7.046;2024-02-28T05:12:17;78.50;;;8.53;;
5117;SDS011;2578;51.622;7.046;2024-02-28T05:14:43;88.30;;;10.30;;
5117;SDS011;2578;51.622;7.046;2024-02-28T05:17:10;87.83;;;10.17;;
5117;SDS011;2578;51.622;7.046;2024-02-28T05:19:36;85.30;;;10.90;;
5117;SDS011;2578;51.622;7.046;2024-02-28T05:22:02;83.97;;;11.23;;
5117;SDS011;2578;51.622;7.046;2024-02-28T05:24:28;79.90;;;10.93;;
5117;SDS011;2578;51.622;7.046;2024-02-28T05:26:54;79.77;;;12.97;;
5117;SDS011;2578;51.622;7.046;2024-02-28T05:29:20;99.00;;;22.90;;
5117;SDS011;2578;51.622;7.046;2024-02-28T05:31:46;82.03;;;15.10;;
5117;SDS011;2578;51.622;7.046;2024-02-28T05:34:12;81.47;;;14.23;;
5117;SDS011;2578;51.622;7.046;2024-02-28T05:36:40;80.30;;;13.80;;
5117;SDS011;2578;51.622;7.046;2024-02-28T05:39:06;84.23;;;17.33;;
5117;SDS011;2578;51.622;7.046;2024-02-28T05:41:33;85.93;;;17.60;;
5117;SDS011;2578;51.622;7.046;2024-02-28T05:43:59;79.37;;;13.33;;
5117;SDS011;2578;51.622;7.046;2024-02-28T05:46:25;81.80;;;16.77;;
5117;SDS011;2578;51.622;7.046;2024-02-28T05:48:51;79.90;;;13.60;;
5117;SDS011;2578;51.622;7.046;2024-02-28T05:51:17;86.93;;;15.77;;
5117;SDS011;2578;51.622;7.046;2024-02-28T05:53:43;79.60;;;12.60;;
5117;SDS011;2578;51.622;7.046;2024-02-28T05:56:10;83.30;;;14.37;;
5117;SDS011;2578;51.622;7.046;2024-02-28T05:58:40;80.27;;;10.80;;
5117;SDS011;2578;51.622;7.046;2024-02-28T06:01:06;76.97;;;8.90;;
5117;SDS011;2578;51.622;7.046;2024-02-28T06:03:32;116.47;;;11.57;;
5117;SDS011;2578;51.622;7.046;2024-02-28T06:05:59;80.20;;;11.43;;
5117;SDS011;2578;51.622;7.046;2024-02-28T06:08:25;79.20;;;10.23;;
5117;SDS011;2578;51.622;7.046;2024-02-28T06:10:51;91.33;;;13.63;;
5117;SDS011;2578;51.622;7.046;2024-02-28T06:13:17;76.77;;;8.00;;
5117;SDS011;2578;51.622;7.046;2024-02-28T06:15:43;76.50;;;7.50;;
5117;SDS011;2578;51.622;7.046;2024-02-28T06:18:09;78.70;;;9.10;;
5117;SDS011;2578;51.622;7.046;2024-02-28T06:20:36;85.77;;;10.10;;
5117;SDS011;2578;51.622;7.046;2024-02-28T06:23:02;76.40;;;7.60;;
5117;SDS011;2578;51.622;7.046;2024-02-28T06:25:28;77.43;;;9.20;;
5117;SDS011;2578;51.622;7.046;2024-02-28T06:27:54;76.40;;;8.17;;
5117;SDS011;2578;51.622;7.046;2024-02-28T06:30:20;80.90;;;10.00;;
5117;SDS011;2578;51.622;7.046;2024-02-28T06:32:46;75.83;;;7.43;;
5117;SDS011;2578;51.622;7.046;2024-02-28T06:35:12;79.97;;;9.80;;
5117;SDS011;2578;51.622;7.046;2024-02-28T06:37:38;76.83;;;7.90;;
5117;SDS011;2578;51.622;7.046;2024-02-28T06:40:04;76.67;;;8.50;;
5117;SDS011;2578;51.622;7.046;2024-02-28T06:42:31;76.57;;;8.50;;
5117;SDS011;2578;51.622;7.046;2024-02-28T06:44:56;79.43;;;12.00;;
5117;SDS011;2578;51.622;7.046;2024-02-28T06:47:22;79.73;;;10.17;;
5117;SDS011;2578;51.622;7.046;2024-02-28T06:49:48;76.90;;;8.40;;
5117;SDS011;2578;51.622;7.046;2024-02-28T06:52:14;77.37;;;8.50;;
5117;SDS011;2578;51.622;7.046;2024-02-28T06:54:40;92.70;;;12.57;;
5117;SDS011;2578;51.622;7.046;2024-02-28T06:57:06;85.23;;;10.83;;
5117;SDS011;2578;51.622;7.046;2024-02-28T06:59:32;106.13;;;18.77;;
5117;SDS011;2578;51.622;7.046;2024-02-28T07:01:58;76.80;;;8.70;;
5117;SDS011;2578;51.622;7.046;2024-02-28T07:04:24;75.90;;;8.53;;
5117;SDS011;2578;51.622;7.046;2024-02-28T07:06:50;80.90;;;10.60;;
5117;SDS011;2578;51.622;7.046;2024-02-28T07:09:16;76.77;;;9.20;;
5117;SDS011;2578;51.622;7.046;2024-02-28T07:11:42;85.20;;;10.70;;
5117;SDS011;2578;51.622;7.046;2024-02-28T07:14:08;75.50;;;7.90;;
5117;SDS011;2578;51.622;7.046;2024-02-28T07:16:34;88.00;;;17.50;;
5117;SDS011;2578;51.622;7.046;2024-02-28T07:19:01;77.50;;;9.57;;
5117;SDS011;2578;51.622;7.046;2024-02-28T07:21:27;76.30;;;10.57;;
5117;SDS011;2578;51.622;7.046;2024-02-28T07:23:53;75.00;;;8.20;;
5117;SDS011;2578;51.622;7.046;2024-02-28T07:26:19;76.27;;;8.57;;
5117;SDS011;2578;51.622;7.046;2024-02-28T07:28:45;84.53;;;12.20;;
5117;SDS011;2578;51.622;7.046;2024-02-28T07:31:17;77.73;;;12.07;;
5117;SDS011;2578;51.622;7.046;2024-02-28T07:33:43;76.70;;;9.80;;
5117;SDS011;2578;51.622;7.046;2024-02-28T07:36:09;80.20;;;9.70;;
5117;SDS011;2578;51.622;7.046;2024-02-28T07:38:35;80.00;;;10.70;;
5117;SDS011;2578;51.622;7.046;2024-02-28T07:41:01;79.80;;;10.30;;
5117;SDS011;2578;51.622;7.046;2024-02-28T07:43:27;79.73;;;8.60;;
5117;SDS011;2578;51.622;7.046;2024-02-28T07:45:57;73.80;;;6.80;;
5117;SDS011;2578;51.622;7.046;2024-02-28T07:48:23;74.57;;;8.67;;
5117;SDS011;2578;51.622;7.046;2024-02-28T07:50:49;79.80;;;8.90;;
5117;SDS011;2578;51.622;7.046;2024-02-28T07:53:16;76.27;;;9.13;;
5117;SDS011;2578;51.622;7.046;2024-02-28T07:55:42;73.60;;;7.30;;
5117;SDS011;2578;51.622;7.046;2024-02-28T07:58:08;83.60;;;10.70;;
5117;SDS011;2578;51.622;7.046;2024-02-28T08:00:34;74.97;;;9.37;;
5117;SDS011;2578;51.622;7.046;2024-02-28T08:03:01;73.57;;;7.60;;
5117;SDS011;2578;51.622;7.046;2024-02-28T08:05:27;80.00;;;10.40;;
5117;SDS011;2578;51.622;7.046;2024-02-28T08:07:53;89.93;;;18.73;;
5117;SDS011;2578;51.622;7.046;2024-02-28T08:10:19;78.40;;;10.20;;
5117;SDS011;2578;51.622;7.046;2024-02-28T08:12:45;73.27;;;7.27;;
5117;SDS011;2578;51.622;7.046;2024-02-28T08:15:11;76.43;;;8.27;;
5117;SDS011;2578;51.622;7.046;2024-02-28T08:17:36;75.30;;;8.67;;
5117;SDS011;2578;51.622;7.046;2024-02-28T08:20:03;73.40;;;7.00;;
5117;SDS011;2578;51.622;7.046;2024-02-28T08:22:33;77.87;;;8.40;;
5117;SDS011;2578;51.622;7.046;2024-02-28T08:24:59;75.63;;;8.90;;
5117;SDS011;2578;51.622;7.046;2024-02-28T08:27:25;73.27;;;6.77;;
5117;SDS011;2578;51.622;7.046;2024-02-28T08:29:51;86.40;;;13.70;;
5117;SDS011;2578;51.622;7.046;2024-02-28T08:32:17;81.83;;;7.37;;
5117;SDS011;2578;51.622;7.046;2024-02-28T08:34:44;87.80;;;8.03;;
5117;SDS011;2578;51.622;7.046;2024-02-28T08:37:11;73.27;;;6.00;;
5117;SDS011;2578;51.622;7.046;2024-02-28T08:39:37;76.20;;;8.90;;
5117;SDS011;2578;51.622;7.046;2024-02-28T08:42:03;72.87;;;5.90;;
5117;SDS011;2578;51.622;7.046;2024-02-28T08:44:29;73.87;;;7.43;;
5117;SDS011;2578;51.622;7.046;2024-02-28T08:46:55;76.87;;;8.90;;
5117;SDS011;2578;51.622;7.046;2024-02-28T08:49:21;82.20;;;8.13;;
5117;SDS011;2578;51.622;7.046;2024-02-28T08:51:47;78.13;;;9.50;;
5117;SDS011;2578;51.622;7.046;2024-02-28T08:54:13;73.07;;;5.40;;
5117;SDS011;2578;51.622;7.046;2024-02-28T08:56:39;72.50;;;5.97;;
5117;SDS011;2578;51.622;7.046;2024-02-28T08:59:05;75.40;;;8.17;;
5117;SDS011;2578;51.622;7.046;2024-02-28T09:01:31;82.70;;;11.90;;
5117;SDS011;2578;51.622;7.046;2024-02-28T09:03:59;74.07;;;7.17;;
5117;SDS011;2578;51.622;7.046;2024-02-28T09:06:25;73.60;;;6.70;;
5117;SDS011;2578;51.622;7.046;2024-02-28T09:08:52;73.97;;;7.67;;
5117;SDS011;2578;51.622;7.046;2024-02-28T09:11:18;80.13;;;8.97;;
5117;SDS011;2578;51.622;7.046;2024-02-28T09:13:44;90.50;;;16.07;;
5117;SDS011;2578;51.622;7.046;2024-02-28T09:16:10;77.30;;;10.30;;
5117;SDS011;2578;51.622;7.046;2024-02-28T09:18:36;75.77;;;10.77;;
5117;SDS011;2578;51.622;7.046;2024-02-28T09:21:02;111.60;;;12.53;;
5117;SDS011;2578;51.622;7.046;2024-02-28T09:23:28;75.17;;;10.20;;
5117;SDS011;2578;51.622;7.046;2024-02-28T09:25:55;77.17;;;12.83;;
5117;SDS011;2578;51.622;7.046;2024-02-28T09:28:21;82.17;;;13.80;;
5117;SDS011;2578;51.622;7.046;2024-02-28T09:30:47;76.20;;;14.00;;
5117;SDS011;2578;51.622;7.046;2024-02-28T09:33:16;88.83;;;21.40;;
5117;SDS011;2578;51.622;7.046;2024-02-28T09:35:44;89.43;;;20.70;;
5117;SDS011;2578;51.622;7.046;2024-02-28T09:38:10;83.43;;;15.33;;
5117;SDS011;2578;51.622;7.046;2024-02-28T09:40:36;77.47;;;14.03;;
5117;SDS011;2578;51.622;7.046;2024-02-28T09:43:03;78.27;;;14.40;;
5117;SDS011;2578;51.622;7.046;2024-02-28T09:45:30;83.00;;;16.00;;
5117;SDS011;2578;51.622;7.046;2024-02-28T09:48:00;77.07;;;15.03;;
5117;SDS011;2578;51.622;7.046;2024-02-28T09:50:28;83.30;;;19.53;;
5117;SDS011;2578;51.622;7.046;2024-02-28T09:52:54;82.13;;;18.53;;
5117;SDS011;2578;51.622;7.046;2024-02-28T09:55:20;78.83;;;17.57;;
5117;SDS011;2578;51.622;7.046;2024-02-28T09:57:47;78.17;;;17.87;;
5117;SDS011;2578;51.622;7.046;2024-02-28T10:00:14;91.13;;;20.83;;
5117;SDS011;2578;51.622;7.046;2024-02-28T10:02:41;82.27;;;20.13;;
5117;SDS011;2578;51.622;7.046;2024-02-28T10:05:08;90.03;;;25.20;;
5117;SDS011;2578;51.622;7.046;2024-02-28T10:07:35;114.07;;;29.67;;
5117;SDS011;2578;51.622;7.046;2024-02-28T10:10:01;92.00;;;27.83;;
5117;SDS011;2578;51.622;7.046;2024-02-28T10:12:29;90.27;;;27.90;;
5117;SDS011;2578;51.622;7.046;2024-02-28T10:14:55;107.67;;;28.33;;
5117;SDS011;2578;51.622;7.046;2024-02-28T10:17:20;113.00;;;34.33;;
5117;SDS011;2578;51.622;7.046;2024-02-28T10:19:46;86.10;;;25.17;;
5117;SDS011;2578;51.622;7.046;2024-02-28T10:22:12;96.37;;;30.43;;
5117;SDS011;2578;51.622;7.046;2024-02-28T10:24:38;90.60;;;28.30;;
5117;SDS011;2578;51.622;7.046;2024-02-28T10:27:04;95.93;;;30.43;;
5117;SDS011;2578;51.622;7.046;2024-02-28T10:29:30;87.40;;;27.80;;
5117;SDS011;2578;51.622;7.046;2024-02-28T10:31:59;109.63;;;31.13;;
5117;SDS011;2578;51.622;7.046;2024-02-28T10:34:26;93.27;;;30.67;;
5117;SDS011;2578;51.622;7.046;2024-02-28T10:36:52;93.37;;;31.20;;
5117;SDS011;2578;51.622;7.046;2024-02-28T10:39:18;99.33;;;35.90;;
5117;SDS011;2578;51.622;7.046;2024-02-28T10:41:46;114.53;;;35.43;;
5117;SDS011;2578;51.622;7.046;2024-02-28T10:44:13;110.97;;;43.60;;
5117;SDS011;2578;51.622;7.046;2024-02-28T10:46:40;105.10;;;40.53;;
5117;SDS011;2578;51.622;7.046;2024-02-28T10:49:06;113.00;;;61.20;;
5117;SDS011;2578;51.622;7.046;2024-02-28T10:51:34;115.97;;;73.00;;
5117;SDS011;2578;51.622;7.046;2024-02-28T10:54:10;113.77;;;68.93;;
5117;SDS011;2578;51.622;7.046;2024-02-28T10:56:37;131.70;;;71.40;;
5117;SDS011;2578;51.622;7.046;2024-02-28T10:59:05;136.67;;;66.93;;
5117;SDS011;2578;51.622;7.046;2024-02-28T11:01:33;125.47;;;69.47;;
5117;SDS011;2578;51.622;7.046;2024-02-28T11:03:59;108.37;;;44.30;;
5117;SDS011;2578;51.622;7.046;2024-02-28T11:06:25;106.77;;;46.03;;
5117;SDS011;2578;51.622;7.046;2024-02-28T11:08:52;106.17;;;39.00;;
5117;SDS011;2578;51.622;7.046;2024-02-28T11:11:19;127.57;;;54.30;;
5117;SDS011;2578;51.622;7.046;2024-02-28T11:13:54;108.27;;;41.10;;
5117;SDS011;2578;51.622;7.046;2024-02-28T11:16:33;112.33;;;39.77;;
5117;SDS011;2578;51.622;7.046;2024-02-28T11:18:59;116.43;;;42.97;;
5117;SDS011;2578;51.622;7.046;2024-02-28T11:21:26;107.17;;;41.17;;
5117;SDS011;2578;51.622;7.046;2024-02-28T11:24:01;107.83;;;38.83;;
5117;SDS011;2578;51.622;7.046;2024-02-28T11:26:28;110.67;;;42.87;;
5117;SDS011;2578;51.622;7.046;2024-02-28T11:28:54;113.50;;;43.00;;
5117;SDS011;2578;51.622;7.046;2024-02-28T11:31:20;112.40;;;42.77;;
5117;SDS011;2578;51.622;7.046;2024-02-28T11:33:46;116.27;;;45.50;;
5117;SDS011;2578;51.622;7.046;2024-02-28T11:36:13;108.80;;;41.30;;
5117;SDS011;2578;51.622;7.046;2024-02-28T11:38:39;110.53;;;43.60;;
5117;SDS011;2578;51.622;7.046;2024-02-28T11:41:06;112.30;;;48.53;;
5117;SDS011;2578;51.622;7.046;2024-02-28T11:43:32;112.27;;;45.37;;
5117;SDS011;2578;51.622;7.046;2024-02-28T11:45:59;121.63;;;52.87;;
5117;SDS011;2578;51.622;7.046;2024-02-28T11:48:25;112.10;;;44.00;;
5117;SDS011;2578;51.622;7.046;2024-02-28T11:50:52;111.40;;;45.70;;
5117;SDS011;2578;51.622;7.046;2024-02-28T11:53:19;115.00;;;45.47;;
5117;SDS011;2578;51.622;7.046;2024-02-28T11:55:45;118.80;;;48.37;;
5117;SDS011;2578;51.622;7.046;2024-02-28T11:58:13;113.27;;;48.23;;
5117;SDS011;2578;51.622;7.046;2024-02-28T12:00:48;114.60;;;48.73;;
5117;SDS011;2578;51.622;7.046;2024-02-28T12:03:19;114.40;;;51.87;;
5117;SDS011;2578;51.622;7.046;2024-02-28T12:05:45;117.87;;;54.70;;
5117;SDS011;2578;51.622;7.046;2024-02-28T12:08:11;122.20;;;61.33;;
5117;SDS011;2578;51.622;7.046;2024-02-28T12:10:37;127.60;;;67.37;;
5117;SDS011;2578;51.622;7.046;2024-02-28T12:13:03;133.00;;;73.80;;
5117;SDS011;2578;51.622;7.046;2024-02-28T12:15:29;135.20;;;73.60;;
5117;SDS011;2578;51.622;7.046;2024-02-28T12:17:55;138.20;;;83.47;;
5117;SDS011;2578;51.622;7.046;2024-02-28T12:20:23;133.07;;;73.70;;
5117;SDS011;2578;51.622;7.046;2024-02-28T12:22:49;121.80;;;66.53;;
5117;SDS011;2578;51.622;7.046;2024-02-28T12:25:15;119.73;;;60.93;;
5117;SDS011;2578;51.622;7.046;2024-02-28T12:27:41;125.37;;;70.40;;
5117;SDS011;2578;51.622;7.046;2024-02-28T12:30:07;124.73;;;69.80;;
5117;SDS011;2578;51.622;7.046;2024-02-28T12:32:33;121.93;;;63.20;;
5117;SDS011;2578;51.622;7.046;2024-02-28T12:34:59;117.90;;;60.50;;
5117;SDS011;2578;51.622;7.046;2024-02-28T12:37:25;104.93;;;47.83;;
5117;SDS011;2578;51.622;7.046;2024-02-28T12:39:53;109.57;;;51.47;;
5117;SDS011;2578;51.622;7.046;2024-02-28T12:42:19;110.70;;;54.97;;
5117;SDS011;2578;51.622;7.046;2024-02-28T12:44:45;115.67;;;56.80;;
5117;SDS011;2578;51.622;7.046;2024-02-28T12:47:11;114.37;;;57.67;;
5117;SDS011;2578;51.622;7.046;2024-02-28T12:49:37;113.30;;;56.90;;
5117;SDS011;2578;51.622;7.046;2024-02-28T12:52:03;112.47;;;55.93;;
5117;SDS011;2578;51.622;7.046;2024-02-28T12:54:30;119.80;;;57.63;;
5117;SDS011;2578;51.622;7.046;2024-02-28T12:56:56;115.90;;;65.40;;
5117;SDS011;2578;51.622;7.046;2024-02-28T12:59:22;116.60;;;66.50;;
5117;SDS011;2578;51.622;7.046;2024-02-28T13:01:48;118.77;;;68.13;;
5117;SDS011;2578;51.622;7.046;2024-02-28T13:04:14;119.43;;;69.07;;
5117;SDS011;2578;51.622;7.046;2024-02-28T13:06:40;107.40;;;47.90;;
5117;SDS011;2578;51.622;7.046;2024-02-28T13:09:06;102.93;;;40.83;;
5117;SDS011;2578;51.622;7.046;2024-02-28T13:11:37;104.40;;;41.77;;
5117;SDS011;2578;51.622;7.046;2024-02-28T13:14:03;104.97;;;43.87;;
5117;SDS011;2578;51.622;7.046;2024-02-28T13:16:33;102.60;;;38.33;;
5117;SDS011;2578;51.622;7.046;2024-02-28T13:18:59;100.40;;;36.50;;
5117;SDS011;2578;51.622;7.046;2024-02-28T13:21:25;102.83;;;38.90;;
5117;SDS011;2578;51.622;7.046;2024-02-28T13:23:51;101.47;;;38.63;;
5117;SDS011;2578;51.622;7.046;2024-02-28T13:26:17;113.10;;;40.50;;
5117;SDS011;2578;51.622;7.046;2024-02-28T13:28:44;101.70;;;39.07;;
5117;SDS011;2578;51.622;7.046;2024-02-28T13:31:13;110.83;;;41.77;;
5117;SDS011;2578;51.622;7.046;2024-02-28T13:33:39;102.77;;;39.50;;
5117;SDS011;2578;51.622;7.046;2024-02-28T13:36:06;109.07;;;42.40;;
5117;SDS011;2578;51.622;7.046;2024-02-28T13:38:32;105.07;;;42.60;;
5117;SDS011;2578;51.622;7.046;2024-02-28T13:40:58;100.40;;;39.77;;
5117;SDS011;2578;51.622;7.046;2024-02-28T13:43:24;114.43;;;36.53;;
5117;SDS011;2578;51.622;7.046;2024-02-28T13:45:50;100.27;;;41.90;;
5117;SDS011;2578;51.622;7.046;2024-02-28T13:48:20;103.07;;;41.97;;
5117;SDS011;2578;51.622;7.046;2024-02-28T13:50:47;97.93;;;38.70;;
5117;SDS011;2578;51.622;7.046;2024-02-28T13:53:14;98.70;;;39.90;;
5117;SDS011;2578;51.622;7.046;2024-02-28T13:55:40;97.27;;;38.17;;
5117;SDS011;2578;51.622;7.046;2024-02-28T13:58:07;98.37;;;39.77;;
5117;SDS011;2578;51.622;7.046;2024-02-28T14:00:34;95.80;;;36.80;;
5117;SDS011;2578;51.622;7.046;2024-02-28T14:03:01;96.37;;;35.73;;
5117;SDS011;2578;51.622;7.046;2024-02-28T14:05:27;97.17;;;39.27;;
5117;SDS011;2578;51.622;7.046;2024-02-28T14:07:54;96.70;;;40.10;;
5117;SDS011;2578;51.622;7.046;2024-02-28T14:10:19;97.93;;;39.60;;
5117;SDS011;2578;51.622;7.046;2024-02-28T14:12:46;99.57;;;41.53;;
5117;SDS011;2578;51.622;7.046;2024-02-28T14:15:12;98.53;;;38.40;;
5117;SDS011;2578;51.622;7.046;2024-02-28T14:17:39;100.20;;;41.80;;
5117;SDS011;2578;51.622;7.046;2024-02-28T14:20:06;101.87;;;42.10;;
5117;SDS011;2578;51.622;7.046;2024-02-28T14:22:34;103.07;;;42.80;;
5117;SDS011;2578;51.622;7.046;2024-02-28T14:25:00;99.73;;;39.33;;
5117;SDS011;2578;51.622;7.046;2024-02-28T14:27:26;98.77;;;37.87;;
5117;SDS011;2578;51.622;7.046;2024-02-28T14:29:57;101.00;;;40.87;;
5117;SDS011;2578;51.622;7.046;2024-02-28T14:32:24;105.83;;;45.53;;
5117;SDS011;2578;51.622;7.046;2024-02-28T14:34:50;100.03;;;40.73;;
5117;SDS011;2578;51.622;7.046;2024-02-28T14:37:16;99.30;;;39.97;;
5117;SDS011;2578;51.622;7.046;2024-02-28T14:39:42;115.10;;;40.20;;
5117;SDS011;2578;51.622;7.046;2024-02-28T14:42:08;115.37;;;31.13;;